Time;durP1;ratioP1;P1;durP2;ratioP2;P2;SDS_P1;SDS_P2;PMS_P1;PMS_P2;Temp;Humidity;BMP_temperature;BMP_pressure;BME280_temperature;BME280_humidity;BME280_pressure;Samples;Min_cycle;Max_cycle;Signal;HPM_P1;HPM_P2
2022/08/08 00:00:16;;;;;;;2.50;1.55;;;;;;;40.57;12.80;100530.13;5038560;28;20562;-74
2022/08/08 00:02:57;;;;;;;2.03;1.67;;;;;;;40.51;12.03;100522.59;5019040;28;20450;-73
2022/08/08 00:05:36;;;;;;;2.10;1.60;;;;;;;40.48;11.85;100531.06;5029574;28;20053;-73
2022/08/08 00:08:13;;;;;;;3.83;1.40;;;;;;;40.41;12.43;100521.84;5034481;28;20057;-74
2022/08/08 00:10:50;;;;;;;2.08;1.60;;;;;;;40.35;13.22;100522.44;5034763;28;20495;-73
2022/08/08 00:13:25;;;;;;;3.03;1.52;;;;;;;40.28;12.57;100521.38;5029558;28;20049;-75
2022/08/08 00:16:06;;;;;;;3.55;1.88;;;;;;;40.16;11.59;100516.13;5039237;28;20119;-75
2022/08/08 00:18:44;;;;;;;1.92;1.73;;;;;;;40.08;12.50;100524.16;5041024;28;20071;-74
2022/08/08 00:21:18;;;;;;;3.00;1.83;;;;;;;40.06;12.58;100526.16;5040015;28;20081;-78
2022/08/08 00:23:53;;;;;;;2.50;1.70;;;;;;;40.03;13.37;100525.63;5032383;28;20486;-74
2022/08/08 00:26:26;;;;;;;2.70;1.88;;;;;;;39.99;13.60;100519.66;5036688;28;20052;-76
2022/08/08 00:29:03;;;;;;;3.47;1.80;;;;;;;39.88;12.82;100512.56;5030928;28;20050;-79
2022/08/08 00:31:35;;;;;;;2.58;1.80;;;;;;;39.82;12.17;100506.94;5038920;28;20506;-78
2022/08/08 00:37:15;;;;;;;2.95;1.77;;;;;;;39.68;12.26;100500.97;5037061;28;20513;-76
2022/08/08 00:39:54;;;;;;;2.35;2.00;;;;;;;39.64;11.21;100499.56;5035601;28;20751;-77
2022/08/08 00:42:54;;;;;;;4.03;1.90;;;;;;;39.58;12.05;100500.16;5026006;28;20164;-78
2022/08/08 00:45:54;;;;;;;1.85;1.50;;;;;;;39.58;14.11;100494.75;5029060;28;20054;-77
2022/08/08 00:49:02;;;;;;;2.75;1.95;;;;;;;39.52;12.66;100495.38;5032451;28;20110;-79
2022/08/08 00:52:00;;;;;;;2.80;1.83;;;;;;;39.45;12.98;100488.81;5019625;28;20495;-78
2022/08/08 00:55:09;;;;;;;2.15;1.85;;;;;;;39.34;13.27;100492.53;5026259;28;20128;-75
2022/08/08 00:58:18;;;;;;;2.05;1.60;;;;;;;39.28;12.89;100482.31;5007473;28;20564;-76
2022/08/08 01:00:57;;;;;;;2.70;1.85;;;;;;;39.21;14.45;100486.59;5032576;28;20108;-76
2022/08/08 01:04:09;;;;;;;1.90;1.70;;;;;;;39.11;14.55;100482.06;5012089;28;20058;-75
2022/08/08 01:07:17;;;;;;;2.70;1.95;;;;;;;38.99;12.39;100476.97;5029349;28;20049;-75
2022/08/08 01:10:23;;;;;;;3.60;2.10;;;;;;;38.96;13.61;100478.13;4989260;28;20092;-75
2022/08/08 01:13:23;;;;;;;2.42;2.20;;;;;;;38.91;13.04;100474.97;4939807;28;20098;-75
2022/08/08 01:16:24;;;;;;;2.33;1.65;;;;;;;38.84;12.61;100480.09;5008829;28;20076;-75
2022/08/08 01:19:28;;;;;;;2.63;1.70;;;;;;;38.78;12.04;100479.81;5034016;28;20080;-76
2022/08/08 01:22:32;;;;;;;2.58;2.13;;;;;;;38.70;11.75;100467.03;5020719;28;20053;-77
2022/08/08 01:25:30;;;;;;;2.53;2.00;;;;;;;38.60;11.55;100460.78;5033535;28;20521;-76
2022/08/08 01:28:07;;;;;;;2.53;2.10;;;;;;;38.52;12.52;100459.63;4995311;28;20641;-74
2022/08/08 01:31:10;;;;;;;3.10;2.33;;;;;;;38.47;13.56;100464.63;5042885;28;20124;-73
2022/08/08 01:34:11;;;;;;;4.05;2.60;;;;;;;38.42;14.27;100464.19;5024075;28;20501;-74
2022/08/08 01:37:07;;;;;;;2.92;2.05;;;;;;;38.34;14.78;100466.72;4984922;28;20182;-74
2022/08/08 01:39:51;;;;;;;2.80;2.33;;;;;;;38.23;14.82;100459.59;5003649;28;20046;-73
2022/08/08 01:42:29;;;;;;;4.55;2.47;;;;;;;38.16;12.92;100458.47;5009974;28;20306;-73
2022/08/08 01:45:10;;;;;;;3.17;2.38;;;;;;;38.07;15.38;100452.06;5011444;28;20060;-73
2022/08/08 01:47:57;;;;;;;3.20;2.25;;;;;;;37.96;12.85;100457.56;5019679;28;20065;-74
2022/08/08 01:50:40;;;;;;;2.88;2.30;;;;;;;37.86;14.36;100451.28;5005840;28;20104;-74
2022/08/08 01:53:19;;;;;;;3.70;2.40;;;;;;;37.81;15.37;100453.56;5014479;28;20043;-74
2022/08/08 01:55:59;;;;;;;3.10;2.55;;;;;;;37.69;15.15;100452.81;5010561;28;20052;-74
2022/08/08 01:58:42;;;;;;;4.68;2.53;;;;;;;37.57;14.07;100446.69;5007690;28;20060;-73
2022/08/08 02:01:21;;;;;;;3.28;2.38;;;;;;;37.48;13.11;100442.91;5013877;28;20065;-72
2022/08/08 02:04:02;;;;;;;4.38;2.72;;;;;;;37.41;13.72;100435.47;5018255;28;20527;-73
2022/08/08 02:06:52;;;;;;;3.10;2.35;;;;;;;37.32;13.55;100434.47;5004281;28;20473;-73
2022/08/08 02:09:32;;;;;;;3.42;2.35;;;;;;;37.26;15.64;100454.75;5002701;28;20061;-73
2022/08/08 02:12:07;;;;;;;3.08;2.28;;;;;;;37.18;14.11;100456.41;5011565;28;20495;-74
2022/08/08 02:14:41;;;;;;;3.45;2.50;;;;;;;37.05;15.88;100451.19;5001186;28;20652;-72
2022/08/08 02:17:16;;;;;;;3.65;2.55;;;;;;;36.94;15.64;100454.81;5011036;28;20521;-72
2022/08/08 02:19:54;;;;;;;5.00;2.45;;;;;;;36.84;15.48;100453.91;5009944;28;20626;-73
2022/08/08 02:22:30;;;;;;;3.22;2.40;;;;;;;36.74;16.18;100458.38;5014587;28;20096;-73
2022/08/08 02:25:16;;;;;;;3.97;2.60;;;;;;;36.65;16.26;100457.31;5010661;28;20049;-73
2022/08/08 02:27:48;;;;;;;8.43;3.30;;;;;;;36.56;15.67;100460.75;5012975;28;20148;-72
2022/08/08 02:30:23;;;;;;;3.08;2.70;;;;;;;36.46;15.76;100463.38;5011898;28;20061;-72
2022/08/08 02:33:14;;;;;;;2.67;2.30;;;;;;;36.37;15.50;100466.84;5005654;28;20053;-74
2022/08/08 02:36:17;;;;;;;4.00;2.50;;;;;;;36.27;15.67;100466.78;5012692;28;20075;-71
2022/08/08 02:38:56;;;;;;;4.15;2.40;;;;;;;36.16;16.14;100470.34;5028009;28;20045;-74
2022/08/08 02:41:47;;;;;;;3.95;2.30;;;;;;;36.06;15.96;100482.84;5021430;28;20045;-73
2022/08/08 02:44:24;;;;;;;;;;;;;;;35.96;16.82;100480.03;5035702;28;20126;-73
2022/08/08 02:47:28;;;;;;;3.10;2.53;;;;;;;35.85;17.32;100496.19;5025638;28;20027;-73
2022/08/08 02:50:21;;;;;;;2.90;2.28;;;;;;;35.71;18.20;100485.69;5022280;28;20107;-73
2022/08/08 02:53:04;;;;;;;3.08;2.22;;;;;;;35.57;17.56;100502.91;5023729;28;20045;-73
2022/08/08 02:56:15;;;;;;;3.00;2.40;;;;;;;35.39;17.04;100503.44;5034773;28;20050;-73
2022/08/08 02:59:36;;;;;;;4.63;2.10;;;;;;;35.23;17.92;100502.88;4996352;28;20056;-73
2022/08/08 03:02:35;;;;;;;2.45;2.22;;;;;;;35.07;18.63;100505.03;5045947;28;20566;-72
2022/08/08 03:05:36;;;;;;;2.72;2.28;;;;;;;34.90;18.45;100500.97;5039090;28;20064;-73
2022/08/08 03:08:42;;;;;;;2.40;1.98;;;;;;;34.71;18.72;100499.69;5033776;28;20049;-74
2022/08/08 03:11:50;;;;;;;3.08;2.28;;;;;;;34.53;18.47;100498.38;5028456;28;20426;-75
2022/08/08 03:14:46;;;;;;;4.15;1.80;;;;;;;34.32;18.82;100503.53;5037473;28;20045;-75
2022/08/08 03:17:20;;;;;;;3.63;2.28;;;;;;;34.16;18.91;100501.09;5041267;28;20049;-74
2022/08/08 03:20:05;;;;;;;4.72;2.40;;;;;;;33.99;19.57;100507.66;5022567;28;20057;-73
2022/08/08 03:22:32;;;;;;;3.95;2.17;;;;;;;33.84;20.33;100504.28;5044159;28;20108;-73
2022/08/08 03:25:06;;;;;;;3.53;2.70;;;;;;;33.72;20.63;100521.25;5040036;28;20521;-74
2022/08/08 03:27:39;;;;;;;3.35;2.55;;;;;;;33.55;21.54;100517.91;5030342;28;20086;-72
2022/08/08 03:30:10;;;;;;;6.18;2.53;;;;;;;33.41;21.73;100531.44;5033067;28;20572;-73
2022/08/08 03:35:25;;;;;;;8.50;2.95;;;;;;;33.09;25.01;100533.66;5045416;28;20062;-74
2022/08/08 03:37:54;;;;;;;7.10;2.75;;;;;;;32.91;23.72;100533.91;5032805;28;20069;-75
2022/08/08 03:40:25;;;;;;;3.88;2.70;;;;;;;32.73;23.66;100536.03;5021994;28;20550;-74
2022/08/08 03:42:54;;;;;;;4.88;3.00;;;;;;;32.59;23.35;100538.75;5046332;28;20536;-73
2022/08/08 03:45:24;;;;;;;4.82;2.80;;;;;;;32.40;24.51;100527.50;5048231;28;20094;-73
2022/08/08 03:47:57;;;;;;;3.88;2.90;;;;;;;32.29;23.93;100542.44;5037161;28;20431;-72
2022/08/08 03:50:34;;;;;;;5.03;2.90;;;;;;;32.17;24.31;100545.94;5046017;28;20049;-72
2022/08/08 03:53:07;;;;;;;4.05;2.63;;;;;;;32.06;24.63;100545.75;5049350;28;20048;-72
2022/08/08 03:55:39;;;;;;;4.28;2.60;;;;;;;31.93;24.83;100551.88;5035966;28;20160;-72
2022/08/08 03:58:09;;;;;;;3.72;2.67;;;;;;;31.83;25.83;100556.06;5042659;28;20045;-72
2022/08/08 04:00:38;;;;;;;5.30;3.03;;;;;;;31.72;26.06;100561.22;5028999;28;20108;-72
2022/08/08 04:03:09;;;;;;;4.55;2.70;;;;;;;31.62;26.08;100562.75;5023905;28;20131;-72
2022/08/08 04:05:38;;;;;;;5.57;2.72;;;;;;;31.47;26.73;100569.88;5031593;28;20045;-74
2022/08/08 04:08:08;;;;;;;4.97;2.90;;;;;;;31.23;26.94;100562.38;5029038;28;20075;-73
2022/08/08 04:10:38;;;;;;;3.90;2.63;;;;;;;31.10;27.64;100572.91;5044628;28;20130;-72
2022/08/08 04:13:07;;;;;;;3.85;2.35;;;;;;;30.91;27.91;100561.63;5029316;28;20588;-72
2022/08/08 04:15:36;;;;;;;6.60;2.67;;;;;;;30.86;27.74;100574.38;5030529;28;20041;-72
2022/08/08 04:18:05;;;;;;;4.75;2.90;;;;;;;30.76;28.05;100579.34;5029815;28;20046;-73
2022/08/08 04:20:33;;;;;;;4.82;2.80;;;;;;;30.61;28.06;100581.09;5035145;28;20084;-73
2022/08/08 04:23:02;;;;;;;5.65;2.95;;;;;;;30.51;29.39;100595.06;5029879;28;20744;-72
2022/08/08 04:25:30;;;;;;;5.43;2.67;;;;;;;30.42;29.92;100599.09;5042528;28;20049;-72
2022/08/08 04:28:01;;;;;;;5.10;2.53;;;;;;;30.35;30.10;100597.72;5022976;28;20577;-71
2022/08/08 04:30:29;;;;;;;4.55;2.97;;;;;;;30.22;30.55;100603.72;5036165;28;20049;-73
2022/08/08 04:32:58;;;;;;;8.80;2.80;;;;;;;30.06;31.60;100611.69;5025395;28;20131;-72
2022/08/08 04:35:27;;;;;;;3.95;2.05;;;;;;;29.94;32.91;100623.03;5033062;28;20049;-72
2022/08/08 04:37:56;;;;;;;5.47;2.70;;;;;;;29.81;32.80;100617.47;5010289;28;20042;-72
2022/08/08 04:40:25;;;;;;;4.88;2.40;;;;;;;29.71;33.12;100629.59;5016297;28;20064;-72
2022/08/08 04:42:55;;;;;;;10.68;3.08;;;;;;;29.56;33.73;100623.19;5017444;28;20495;-72
2022/08/08 04:45:26;;;;;;;6.15;2.45;;;;;;;29.47;35.18;100629.00;5009004;28;20076;-72
2022/08/08 04:47:56;;;;;;;9.68;2.40;;;;;;;29.38;34.64;100630.34;5022526;28;20100;-72
2022/08/08 04:50:31;;;;;;;6.95;2.10;;;;;;;29.32;34.75;100638.66;5000774;28;20053;-72
2022/08/08 04:52:59;;;;;;;6.70;2.05;;;;;;;29.22;35.35;100643.56;5013472;28;20054;-72
2022/08/08 04:55:28;;;;;;;7.03;2.40;;;;;;;29.13;35.60;100640.50;5012916;28;20061;-73
2022/08/08 04:57:57;;;;;;;7.22;2.45;;;;;;;29.08;35.86;100637.22;5017623;28;20561;-71
2022/08/08 05:00:27;;;;;;;3.85;2.20;;;;;;;28.99;35.78;100634.03;5017247;28;20107;-71
2022/08/08 05:02:55;;;;;;;3.97;2.20;;;;;;;28.91;36.06;100630.91;5007707;28;20046;-71
2022/08/08 05:05:24;;;;;;;5.30;2.03;;;;;;;28.84;36.03;100632.13;5001985;28;20068;-71
2022/08/08 05:07:53;;;;;;;3.95;2.40;;;;;;;28.75;36.53;100632.59;4996145;28;20045;-71
2022/08/08 05:10:21;;;;;;;5.32;2.60;;;;;;;28.68;37.07;100642.66;4994154;28;20050;-72
2022/08/08 05:12:50;;;;;;;5.65;2.25;;;;;;;28.59;36.93;100641.28;5008375;28;20049;-71
2022/08/08 05:15:18;;;;;;;4.80;2.50;;;;;;;28.51;37.66;100653.22;5008661;28;20057;-72
2022/08/08 05:17:49;;;;;;;5.70;2.45;;;;;;;28.39;39.25;100649.31;5020199;28;20095;-72
2022/08/08 05:20:17;;;;;;;3.80;2.10;;;;;;;28.29;38.69;100661.31;5017365;28;20131;-72
2022/08/08 05:22:46;;;;;;;4.97;2.53;;;;;;;28.20;38.44;100654.63;5013713;28;20042;-71
2022/08/08 05:25:15;;;;;;;6.22;2.60;;;;;;;28.11;38.16;100655.91;5028127;28;20054;-71
2022/08/08 05:27:44;;;;;;;4.13;2.30;;;;;;;28.02;38.05;100656.31;5015188;28;20550;-71
2022/08/08 05:30:13;;;;;;;6.32;2.58;;;;;;;27.95;38.54;100660.19;5026057;28;20533;-71
2022/08/08 05:32:41;;;;;;;5.50;2.55;;;;;;;27.88;38.58;100674.69;5007995;28;20139;-73
2022/08/08 05:35:14;;;;;;;7.65;2.70;;;;;;;27.77;37.67;100662.69;5003990;28;20054;-71
2022/08/08 05:37:48;;;;;;;5.85;2.63;;;;;;;27.71;38.16;100670.91;5032168;28;20052;-71
2022/08/08 05:40:18;;;;;;;5.05;2.28;;;;;;;27.60;38.46;100667.84;5024120;28;20115;-72
2022/08/08 05:42:50;;;;;;;3.95;2.22;;;;;;;27.54;38.88;100674.31;5029910;28;20045;-71
2022/08/08 05:45:18;;;;;;;4.88;2.70;;;;;;;27.44;39.38;100680.94;5037399;28;20385;-70
2022/08/08 05:47:47;;;;;;;7.15;3.05;;;;;;;27.32;39.43;100679.63;5030023;28;20041;-72
2022/08/08 05:50:19;;;;;;;3.97;2.22;;;;;;;27.03;39.79;100679.94;5042735;28;20042;-71
2022/08/08 05:52:49;;;;;;;6.53;2.95;;;;;;;26.72;41.09;100681.16;5039835;28;20087;-73
2022/08/08 05:55:18;;;;;;;6.32;2.55;;;;;;;26.54;40.63;100670.31;5042128;28;20100;-71
2022/08/08 05:57:51;;;;;;;6.20;2.30;;;;;;;26.47;41.01;100687.34;5037664;28;20095;-71
2022/08/08 06:00:20;;;;;;;4.10;2.65;;;;;;;26.42;41.54;100689.31;5041819;28;20050;-71
2022/08/08 06:05:39;;;;;;;5.85;2.13;;;;;;;26.28;42.05;100694.28;5032571;28;20057;-72
2022/08/08 06:08:10;;;;;;;5.60;2.30;;;;;;;26.15;42.37;100695.66;5043945;28;20045;-72
2022/08/08 06:10:40;;;;;;;7.83;2.17;;;;;;;26.05;43.14;100689.81;5045281;28;20038;-71
2022/08/08 06:13:11;;;;;;;4.15;2.10;;;;;;;25.74;44.07;100695.28;5039151;28;20049;-72
2022/08/08 06:15:42;;;;;;;5.57;2.38;;;;;;;25.61;44.17;100705.44;5038476;28;20099;-70
2022/08/08 06:18:11;;;;;;;4.53;2.08;;;;;;;25.57;44.09;100711.78;5034317;28;20132;-71
2022/08/08 06:20:41;;;;;;;3.28;2.17;;;;;;;25.50;44.49;100713.75;5044065;28;20048;-71
2022/08/08 06:23:10;;;;;;;3.30;1.70;;;;;;;25.45;44.66;100713.06;5040654;28;20104;-71
2022/08/08 06:25:42;;;;;;;2.78;1.95;;;;;;;25.39;44.64;100711.44;5038853;28;20117;-71
2022/08/08 06:28:15;;;;;;;2.53;1.70;;;;;;;25.32;44.30;100722.31;5034952;28;20553;-71
2022/08/08 06:30:45;;;;;;;5.60;2.20;;;;;;;25.25;45.37;100727.78;5033438;28;20033;-71
2022/08/08 06:33:14;;;;;;;4.57;1.88;;;;;;;25.22;45.97;100733.19;5036096;28;20540;-71
2022/08/08 06:35:47;;;;;;;3.20;2.20;;;;;;;25.18;45.60;100728.91;5038207;28;20065;-72
2022/08/08 06:38:19;;;;;;;5.45;1.88;;;;;;;25.11;45.55;100731.78;5044384;28;20072;-71
2022/08/08 06:40:52;;;;;;;2.72;1.60;;;;;;;25.08;44.94;100740.63;5042792;28;20143;-71
2022/08/08 06:43:23;;;;;;;3.55;1.60;;;;;;;24.99;45.45;100741.81;5017560;28;20559;-71
2022/08/08 06:45:51;;;;;;;4.18;1.80;;;;;;;24.91;45.41;100740.31;5032388;28;20454;-71
2022/08/08 06:48:20;;;;;;;3.88;1.50;;;;;;;24.83;46.17;100743.16;5028121;28;20459;-72
2022/08/08 06:50:52;;;;;;;3.40;1.60;;;;;;;24.70;46.45;100736.53;5037050;28;20045;-71
2022/08/08 06:53:21;;;;;;;2.90;2.13;;;;;;;24.55;46.58;100743.13;5027895;28;20069;-71
2022/08/08 06:55:49;;;;;;;3.53;1.83;;;;;;;24.48;46.38;100738.91;5037730;28;20552;-72
2022/08/08 06:58:18;;;;;;;4.05;1.80;;;;;;;24.41;47.26;100736.41;5035236;28;20042;-71
2022/08/08 07:00:50;;;;;;;4.47;1.83;;;;;;;24.36;47.54;100740.09;5036432;28;20094;-72
2022/08/08 07:03:27;;;;;;;8.18;1.77;;;;;;;24.33;48.74;100748.13;5037799;28;20046;-71
2022/08/08 07:06:00;;;;;;;4.85;1.60;;;;;;;24.26;48.32;100747.44;5032412;28;20551;-71
2022/08/08 07:08:35;;;;;;;4.50;2.05;;;;;;;24.23;48.10;100739.56;5042089;28;20762;-71
2022/08/08 07:11:06;;;;;;;4.70;1.70;;;;;;;24.16;47.19;100748.56;5041497;28;20045;-71
2022/08/08 07:13:39;;;;;;;4.00;1.80;;;;;;;24.04;49.72;100749.78;5040415;28;20046;-71
2022/08/08 07:16:17;;;;;;;4.40;1.90;;;;;;;23.82;49.59;100741.50;5032189;28;20053;-70
2022/08/08 07:19:05;;;;;;;6.15;1.80;;;;;;;23.72;48.71;100747.91;5039389;28;20056;-71
2022/08/08 07:21:43;;;;;;;6.93;1.92;;;;;;;23.66;49.92;100745.41;5033246;28;20045;-72
2022/08/08 07:24:18;;;;;;;3.97;1.90;;;;;;;23.47;49.69;100745.88;5041256;28;20521;-71
2022/08/08 07:26:52;;;;;;;11.82;2.70;;;;;;;23.38;49.75;100735.53;5045703;28;20049;-71
2022/08/08 07:29:23;;;;;;;2.30;1.50;;;;;;;23.37;50.48;100736.44;5030984;28;20195;-71
2022/08/08 07:31:52;;;;;;;2.70;1.67;;;;;;;23.36;50.48;100732.06;5036682;28;20077;-70
2022/08/08 07:34:21;;;;;;;3.90;1.65;;;;;;;23.33;50.34;100734.78;5036580;28;20051;-70
2022/08/08 07:36:53;;;;;;;2.00;1.80;;;;;;;23.33;49.94;100740.06;5033092;28;20112;-70
2022/08/08 07:39:23;;;;;;;4.30;2.00;;;;;;;23.30;49.56;100729.59;5024988;28;20038;-71
2022/08/08 07:41:52;;;;;;;3.25;1.70;;;;;;;23.28;49.06;100726.13;5023848;28;20088;-70
2022/08/08 07:44:22;;;;;;;2.03;1.80;;;;;;;23.23;48.84;100720.94;5013830;28;20045;-72
2022/08/08 07:46:51;;;;;;;2.40;1.42;;;;;;;23.18;49.37;100721.03;5020884;28;20133;-71
2022/08/08 07:49:20;;;;;;;2.63;1.63;;;;;;;23.12;49.41;100718.53;5028811;28;20499;-71
2022/08/08 07:51:56;;;;;;;3.22;1.58;;;;;;;23.07;49.85;100717.78;5028406;28;20061;-71
2022/08/08 07:54:32;;;;;;;3.28;1.85;;;;;;;23.02;49.77;100722.31;5020648;28;20041;-70
2022/08/08 07:57:12;;;;;;;2.38;1.73;;;;;;;22.93;50.87;100723.34;5022293;28;20052;-70
2022/08/08 07:59:51;;;;;;;5.03;1.67;;;;;;;22.73;52.23;100728.19;5019839;28;20482;-71
2022/08/08 08:02:24;;;;;;;4.82;1.60;;;;;;;22.52;52.67;100725.09;5015597;28;20137;-70
2022/08/08 08:04:56;;;;;;;3.35;1.80;;;;;;;22.41;55.33;100726.19;5027404;28;20136;-70
2022/08/08 08:07:33;;;;;;;6.10;2.08;;;;;;;22.22;54.85;100734.47;5011759;28;20053;-70
2022/08/08 08:10:05;;;;;;;6.00;2.00;;;;;;;22.06;55.64;100736.47;5028730;28;20154;-70
2022/08/08 08:12:34;;;;;;;8.40;2.28;;;;;;;21.98;55.40;100732.25;5013414;28;20045;-70
2022/08/08 08:15:05;;;;;;;4.30;2.00;;;;;;;21.99;55.37;100733.97;5025254;28;20495;-70
2022/08/08 08:17:40;;;;;;;4.80;2.30;;;;;;;21.98;55.91;100740.16;5016344;28;20045;-70
2022/08/08 08:20:11;;;;;;;4.88;1.98;;;;;;;21.96;55.81;100741.03;5020552;28;20084;-71
2022/08/08 08:22:41;;;;;;;6.28;2.00;;;;;;;21.96;55.75;100732.25;5023477;28;20100;-71
2022/08/08 08:25:10;;;;;;;2.83;1.70;;;;;;;21.95;55.46;100741.94;5020176;28;20045;-71
2022/08/08 08:27:39;;;;;;;3.08;2.10;;;;;;;21.92;55.84;100742.00;5023668;28;20407;-71
2022/08/08 08:30:08;;;;;;;4.90;2.50;;;;;;;21.90;55.24;100741.16;5026131;28;20503;-71
2022/08/08 08:32:37;;;;;;;3.83;1.90;;;;;;;21.83;55.68;100746.53;5019091;28;20805;-70
2022/08/08 08:35:06;;;;;;;4.18;2.10;;;;;;;21.78;56.67;100738.72;5023828;28;20529;-70
2022/08/08 08:37:35;;;;;;;3.65;2.10;;;;;;;21.77;57.19;100739.63;5032622;28;20499;-71
2022/08/08 08:40:06;;;;;;;2.47;1.65;;;;;;;21.75;58.03;100742.28;5030128;28;20049;-70
2022/08/08 08:42:35;;;;;;;4.03;2.17;;;;;;;21.63;58.46;100750.38;5027991;28;20041;-71
2022/08/08 08:45:06;;;;;;;5.70;2.25;;;;;;;21.47;58.83;100739.22;5025702;28;20419;-72
2022/08/08 08:47:35;;;;;;;5.57;2.00;;;;;;;21.42;58.32;100733.19;5032333;28;20081;-71
2022/08/08 08:50:04;;;;;;;4.57;2.08;;;;;;;21.41;58.28;100739.31;5033272;28;20523;-70
2022/08/08 08:52:33;;;;;;;3.05;1.80;;;;;;;21.40;58.30;100747.22;5029845;28;20038;-70
2022/08/08 08:55:02;;;;;;;4.20;2.20;;;;;;;21.33;59.28;100752.56;5027599;28;20050;-71
2022/08/08 08:57:33;;;;;;;5.20;2.20;;;;;;;21.19;60.40;100759.81;5031011;28;20128;-71
2022/08/08 09:00:02;;;;;;;3.13;1.77;;;;;;;21.02;61.17;100757.41;5029851;28;20045;-71
2022/08/08 09:02:35;;;;;;;4.47;2.45;;;;;;;20.88;61.27;100760.22;5025437;28;20057;-70
2022/08/08 09:05:06;;;;;;;3.50;1.90;;;;;;;20.79;59.41;100759.47;5035477;28;20049;-71
2022/08/08 09:07:36;;;;;;;5.57;1.80;;;;;;;20.71;60.12;100757.81;5034145;28;20128;-70
2022/08/08 09:10:05;;;;;;;3.25;1.90;;;;;;;20.64;60.06;100758.78;5032099;28;20111;-71
2022/08/08 09:12:36;;;;;;;4.45;1.70;;;;;;;20.54;60.15;100757.09;5030451;28;20034;-71
2022/08/08 09:15:06;;;;;;;4.38;1.73;;;;;;;20.50;59.11;100768.50;5024458;28;21207;-71
2022/08/08 09:17:35;;;;;;;2.67;1.88;;;;;;;20.49;58.63;100774.69;5031927;28;20053;-70
2022/08/08 09:20:04;;;;;;;4.18;1.92;;;;;;;20.50;59.27;100772.03;5029589;28;20041;-70
2022/08/08 09:22:34;;;;;;;5.15;1.98;;;;;;;20.48;58.81;100771.19;5033150;28;20067;-71
2022/08/08 09:25:06;;;;;;;2.67;1.83;;;;;;;20.47;58.43;100769.41;5027087;28;20091;-71
2022/08/08 09:27:36;;;;;;;;;;;;;;;20.47;59.24;100773.81;5042241;28;20084;-71
2022/08/08 09:30:08;;;;;;;3.13;1.73;;;;;;;20.46;59.26;100767.69;5046665;28;19925;-71
2022/08/08 09:32:38;;;;;;;7.75;1.95;;;;;;;20.44;58.93;100779.13;5024997;28;20045;-70
2022/08/08 09:35:09;;;;;;;3.28;1.67;;;;;;;20.41;58.38;100773.88;5032442;28;20049;-70
2022/08/08 09:37:56;;;;;;;2.40;1.63;;;;;;;20.41;58.04;100763.38;5014878;28;20061;-70
2022/08/08 09:40:26;;;;;;;2.38;1.80;;;;;;;20.40;58.39;100759.00;5004032;28;20050;-71
2022/08/08 09:43:07;;;;;;;1.70;1.50;;;;;;;20.39;58.54;100754.66;5015264;28;20053;-71
2022/08/08 09:45:43;;;;;;;3.67;1.90;;;;;;;20.35;58.12;100753.81;5005416;28;20053;-71
2022/08/08 09:48:12;;;;;;;2.92;1.33;;;;;;;20.30;57.91;100751.22;5013804;28;20058;-71
2022/08/08 09:50:42;;;;;;;3.00;1.70;;;;;;;20.19;58.58;100747.84;5011833;28;20125;-70
2022/08/08 09:53:12;;;;;;;3.17;1.85;;;;;;;20.02;59.44;100753.28;5008638;28;20045;-71
2022/08/08 09:55:42;;;;;;;4.88;2.58;;;;;;;19.86;60.85;100763.03;5010375;28;20731;-70
2022/08/08 09:58:17;;;;;;;3.25;1.90;;;;;;;19.72;61.76;100762.25;5013051;28;20046;-70
2022/08/08 10:00:48;;;;;;;2.60;1.90;;;;;;;19.64;61.05;100764.06;5007579;28;20053;-71
2022/08/08 10:03:18;;;;;;;3.28;1.90;;;;;;;19.61;61.82;100780.72;5002599;28;20495;-71
2022/08/08 10:05:47;;;;;;;3.42;2.05;;;;;;;19.51;61.51;100778.16;5012528;28;20057;-71
2022/08/08 10:08:15;;;;;;;3.78;1.83;;;;;;;19.49;61.61;100779.91;5013203;28;20046;-71
2022/08/08 10:10:45;;;;;;;2.55;2.15;;;;;;;19.48;61.90;100770.31;5009074;28;20050;-71
2022/08/08 10:13:23;;;;;;;3.75;1.90;;;;;;;19.50;62.01;100772.03;5009557;28;20129;-72
2022/08/08 10:15:53;;;;;;;2.45;1.80;;;;;;;19.51;61.36;100765.03;5010736;28;20561;-71
2022/08/08 10:18:28;;;;;;;9.18;2.40;;;;;;;19.46;61.61;100772.94;5001848;28;20108;-70
2022/08/08 10:21:06;;;;;;;3.80;1.83;;;;;;;19.33;63.79;100774.75;5001653;28;20491;-70
2022/08/08 10:23:46;;;;;;;2.42;1.88;;;;;;;19.19;63.97;100779.22;5005074;28;20042;-69
2022/08/08 10:26:20;;;;;;;3.33;1.70;;;;;;;19.08;64.96;100779.28;5008584;28;20058;-70
2022/08/08 10:28:56;;;;;;;2.55;1.92;;;;;;;18.98;65.13;100781.06;5015637;28;20049;-71
2022/08/08 10:34:19;;;;;;;4.47;2.15;;;;;;;18.92;64.59;100772.34;5012645;28;20065;-70
2022/08/08 10:36:55;;;;;;;5.22;1.80;;;;;;;18.95;64.91;100783.72;5018951;28;20112;-70
2022/08/08 10:39:24;;;;;;;2.00;1.70;;;;;;;18.99;64.39;100784.59;5019577;28;20052;-70
2022/08/08 10:41:58;;;;;;;3.33;1.85;;;;;;;18.99;64.24;100788.06;5029815;28;20539;-71
2022/08/08 10:44:35;;;;;;;3.33;2.08;;;;;;;18.99;64.11;100788.06;5021316;28;20533;-70
2022/08/08 10:47:11;;;;;;;2.63;1.58;;;;;;;18.96;65.46;100785.44;5024113;28;20490;-69
2022/08/08 10:49:42;;;;;;;4.40;2.00;;;;;;;18.84;65.98;100777.66;5016055;28;20511;-70
2022/08/08 10:52:11;;;;;;;2.95;1.63;;;;;;;18.80;65.97;100781.16;5020800;28;20046;-70
2022/08/08 10:54:40;;;;;;;4.93;1.80;;;;;;;18.78;67.03;100781.19;5017745;28;20046;-70
2022/08/08 10:57:08;;;;;;;4.07;1.90;;;;;;;18.76;66.95;100782.91;5019291;28;20084;-71
2022/08/08 10:59:39;;;;;;;3.53;1.83;;;;;;;18.76;67.09;100784.63;5015737;28;20454;-71
2022/08/08 11:02:08;;;;;;;4.65;2.20;;;;;;;18.75;66.67;100777.66;5020262;28;20057;-72
2022/08/08 11:04:46;;;;;;;2.75;1.70;;;;;;;18.76;66.42;100787.25;5013948;28;20050;-71
2022/08/08 11:07:25;;;;;;;5.13;2.58;;;;;;;18.73;66.07;100776.78;4996992;28;20046;-72
2022/08/08 11:09:54;;;;;;;4.30;1.90;;;;;;;18.71;66.32;100789.88;5022362;28;20080;-71
2022/08/08 11:12:23;;;;;;;4.97;1.67;;;;;;;18.68;66.50;100784.66;5006916;28;20057;-71
2022/08/08 11:14:55;;;;;;;3.88;2.08;;;;;;;18.67;65.48;100787.28;5025539;28;20068;-70
2022/08/08 11:17:27;;;;;;;4.72;1.80;;;;;;;18.64;65.78;100782.91;5006397;28;20074;-71
2022/08/08 11:19:56;;;;;;;2.87;1.77;;;;;;;18.54;66.47;100792.56;5015816;28;20492;-70
2022/08/08 11:22:29;;;;;;;4.03;2.13;;;;;;;18.38;69.08;100790.84;5021945;28;20500;-71
2022/08/08 11:25:01;;;;;;;4.00;2.10;;;;;;;18.25;69.87;100794.38;5016575;28;20156;-71
2022/08/08 11:27:32;;;;;;;5.50;2.20;;;;;;;18.15;70.78;100794.38;5016220;28;20099;-71
2022/08/08 11:30:05;;;;;;;4.00;1.90;;;;;;;18.06;71.28;100789.16;5017272;28;20046;-70
2022/08/08 11:32:38;;;;;;;6.20;2.03;;;;;;;17.95;71.58;100791.75;5027730;28;20134;-70
2022/08/08 11:35:11;;;;;;;2.83;1.90;;;;;;;17.89;71.50;100796.13;5018816;28;20053;-70
2022/08/08 11:37:41;;;;;;;3.90;1.85;;;;;;;17.82;71.78;100799.63;5009130;28;20538;-71
2022/08/08 11:40:13;;;;;;;3.47;1.85;;;;;;;17.79;70.55;100796.09;5023052;28;20045;-71
2022/08/08 11:42:42;;;;;;;2.55;1.90;;;;;;;17.80;70.88;100799.59;5003398;28;20046;-71
2022/08/08 11:45:15;;;;;;;3.92;2.22;;;;;;;17.80;70.14;100800.47;5023286;28;20058;-71
2022/08/08 11:47:43;;;;;;;;;;;;;;;17.79;71.22;100803.06;5016017;28;20061;-70
2022/08/08 11:50:13;;;;;;;2.78;1.95;;;;;;;17.76;70.57;100803.94;5021577;28;19937;-70
2022/08/08 11:52:43;;;;;;;2.97;1.80;;;;;;;17.75;70.43;100804.84;5011959;28;20077;-71
2022/08/08 11:55:18;;;;;;;2.97;2.17;;;;;;;17.71;70.53;100805.69;5006558;28;20054;-70
2022/08/08 11:57:47;;;;;;;3.42;1.80;;;;;;;17.69;70.92;100812.66;5014949;28;20038;-70
2022/08/08 12:00:19;;;;;;;3.38;2.15;;;;;;;17.71;70.93;100807.44;5007351;28;20062;-70
2022/08/08 12:02:53;;;;;;;2.40;1.60;;;;;;;17.72;70.90;100814.41;5009032;28;20128;-70
2022/08/08 12:05:32;;;;;;;3.67;1.90;;;;;;;17.69;70.64;100817.91;5016062;28;20046;-70
2022/08/08 12:08:01;;;;;;;3.53;1.85;;;;;;;17.65;70.77;100826.63;5017359;28;20080;-70
2022/08/08 12:10:31;;;;;;;3.33;2.05;;;;;;;17.62;71.09;100824.00;5017923;28;20045;-69
2022/08/08 12:13:04;;;;;;;2.47;1.85;;;;;;;17.64;71.04;100823.97;5016172;28;20116;-69
2022/08/08 12:15:35;;;;;;;2.17;1.65;;;;;;;17.65;70.64;100812.66;5017418;28;20041;-70